createdAt,value
2022-12-11T00:02:23.372Z,7.45
2022-12-11T00:04:53.348Z,6.88
2022-12-11T00:07:24.099Z,7.32
2022-12-11T00:09:55.400Z,7.45
2022-12-11T00:12:25.970Z,7.68
2022-12-11T00:14:56.502Z,9.02
2022-12-11T00:17:27.141Z,8.25
2022-12-11T00:19:57.450Z,7.47
2022-12-11T00:22:27.929Z,8.27
2022-12-11T00:24:58.151Z,8.77
2022-12-11T00:27:28.748Z,9.32
2022-12-11T00:29:58.804Z,8.85
2022-12-11T00:32:31.630Z,8.27
2022-12-11T00:35:05.495Z,7.75
2022-12-11T00:37:36.879Z,7.88
2022-12-11T00:40:07.357Z,8.00
2022-12-11T00:42:37.888Z,8.90
2022-12-11T00:45:08.638Z,8.23
2022-12-11T00:47:39.338Z,9.00
2022-12-11T00:50:10.116Z,9.18
2022-12-11T00:52:41.836Z,8.85
2022-12-11T00:55:12.715Z,9.43
2022-12-11T00:57:46.402Z,8.77
2022-12-11T01:00:16.624Z,8.57
2022-12-11T01:02:47.216Z,8.48
2022-12-11T01:05:17.912Z,8.02
2022-12-11T01:07:48.522Z,9.30
2022-12-11T01:10:28.147Z,9.05
2022-12-11T01:13:07.130Z,8.05
2022-12-11T01:15:43.031Z,8.20
2022-12-11T01:18:15.518Z,9.25
2022-12-11T01:20:45.548Z,8.98
2022-12-11T01:23:15.673Z,7.82
2022-12-11T01:25:46.445Z,9.98
2022-12-11T01:28:16.730Z,9.05
2022-12-11T01:30:47.605Z,9.68
2022-12-11T01:33:17.744Z,8.70
2022-12-11T01:35:48.351Z,9.07
2022-12-11T01:38:18.536Z,8.55
2022-12-11T01:40:50.627Z,8.45
2022-12-11T01:43:21.260Z,8.82
2022-12-11T01:45:51.817Z,9.70
2022-12-11T01:48:30.058Z,7.95
2022-12-11T01:51:04.123Z,8.38
2022-12-11T01:53:43.254Z,8.25
2022-12-11T01:56:13.927Z,8.57
2022-12-11T01:58:50.114Z,9.02
2022-12-11T02:01:29.664Z,8.93
2022-12-11T02:04:00.647Z,7.85
2022-12-11T02:06:33.814Z,7.85
2022-12-11T02:09:05.877Z,7.85
2022-12-11T02:11:52.250Z,7.90
2022-12-11T02:14:46.054Z,8.02
2022-12-11T02:17:31.718Z,7.10
2022-12-11T02:20:08.999Z,7.45
2022-12-11T02:23:16.689Z,7.82
2022-12-11T02:26:04.745Z,8.50
2022-12-11T02:28:50.157Z,7.55
2022-12-11T02:31:25.675Z,7.47
2022-12-11T02:34:21.858Z,7.18
2022-12-11T02:36:58.727Z,7.90
2022-12-11T02:39:31.099Z,8.07
2022-12-11T02:42:02.497Z,7.63
2022-12-11T02:44:36.337Z,7.57
2022-12-11T02:47:13.844Z,7.10
2022-12-11T02:49:48.188Z,7.63
2022-12-11T02:52:23.294Z,8.25
2022-12-11T02:55:01.174Z,7.32
2022-12-11T02:57:57.018Z,8.35
2022-12-11T03:00:27.464Z,8.45
2022-12-11T03:02:58.284Z,8.18
2022-12-11T03:05:29.156Z,7.47
2022-12-11T03:07:59.569Z,8.32
2022-12-11T03:10:30.163Z,7.80
2022-12-11T03:13:01.803Z,6.93
2022-12-11T03:16:10.545Z,8.25
2022-12-11T03:19:10.851Z,7.53
2022-12-11T03:21:48.556Z,8.05
2022-12-11T03:24:22.641Z,6.72
2022-12-11T03:27:01.100Z,7.68
2022-12-11T03:29:41.010Z,7.85
2022-12-11T03:32:16.136Z,6.80
2022-12-11T03:34:58.612Z,7.90
2022-12-11T03:37:37.532Z,7.75
2022-12-11T03:40:14.524Z,6.30
2022-12-11T03:42:48.772Z,6.60
2022-12-11T03:45:20.887Z,8.10
2022-12-11T03:47:52.561Z,7.95
2022-12-11T03:50:24.860Z,6.88
2022-12-11T03:52:56.594Z,6.50
2022-12-11T03:55:29.832Z,6.97
2022-12-11T03:58:00.340Z,7.10
2022-12-11T04:00:31.296Z,7.03
2022-12-11T04:03:14.457Z,7.55
2022-12-11T04:05:50.666Z,7.35
2022-12-11T04:08:22.292Z,6.75
2022-12-11T04:11:11.456Z,6.30
2022-12-11T04:13:43.291Z,7.07
2022-12-11T04:16:13.485Z,7.28
2022-12-11T04:19:02.230Z,7.68
2022-12-11T04:21:50.233Z,7.40
2022-12-11T04:24:20.893Z,7.53
2022-12-11T04:26:50.876Z,7.82
2022-12-11T04:29:24.461Z,8.32
2022-12-11T04:31:54.497Z,7.72
2022-12-11T04:34:24.957Z,8.27
2022-12-11T04:36:55.065Z,8.38
2022-12-11T04:39:25.476Z,8.23
2022-12-11T04:41:55.323Z,8.80
2022-12-11T04:44:25.854Z,9.60
2022-12-11T04:46:55.360Z,9.10
2022-12-11T04:49:25.026Z,8.45
2022-12-11T04:51:55.530Z,9.88
2022-12-11T04:54:25.984Z,8.18
2022-12-11T04:56:56.496Z,8.65
2022-12-11T04:59:26.778Z,8.82
2022-12-11T05:01:57.380Z,8.77
2022-12-11T05:04:27.930Z,8.57
2022-12-11T05:06:57.904Z,9.40
2022-12-11T05:09:28.314Z,9.73
2022-12-11T05:11:58.963Z,9.40
2022-12-11T05:14:35.717Z,9.73
2022-12-11T05:17:06.236Z,9.07
2022-12-11T05:19:36.296Z,10.15
2022-12-11T05:22:06.751Z,10.27
2022-12-11T05:24:36.825Z,11.02
2022-12-11T05:27:07.371Z,10.23
2022-12-11T05:29:37.602Z,10.15
2022-12-11T05:32:08.199Z,10.15
2022-12-11T05:34:38.263Z,10.43
2022-12-11T05:37:08.961Z,10.73
2022-12-11T05:39:39.918Z,10.13
2022-12-11T05:42:10.922Z,11.98
2022-12-11T05:44:40.981Z,11.43
2022-12-11T05:47:12.258Z,9.93
2022-12-11T05:49:42.361Z,10.68
2022-12-11T05:52:12.805Z,10.57
2022-12-11T05:57:11.937Z,10.80
2022-12-11T05:59:42.453Z,10.88
2022-12-11T06:02:12.472Z,9.82
2022-12-11T06:04:43.034Z,11.63
2022-12-11T06:07:12.959Z,10.27
2022-12-11T06:09:43.424Z,11.48
2022-12-11T06:12:13.533Z,11.77
2022-12-11T06:14:44.085Z,11.15
2022-12-11T06:17:14.038Z,11.02
2022-12-11T06:19:44.650Z,10.73
2022-12-11T06:22:14.606Z,11.48
2022-12-11T06:24:44.428Z,10.88
2022-12-11T06:27:14.918Z,12.05
2022-12-11T06:29:45.005Z,11.52
2022-12-11T06:32:15.411Z,11.05
2022-12-11T06:34:45.372Z,11.60
2022-12-11T06:37:15.944Z,12.27
2022-12-11T06:39:48.053Z,13.25
2022-12-11T06:42:19.171Z,12.98
2022-12-11T06:44:52.202Z,11.90
2022-12-11T06:47:22.639Z,12.48
2022-12-11T06:49:52.473Z,12.43
2022-12-11T06:52:26.645Z,11.65
2022-12-11T06:54:57.162Z,12.60
2022-12-11T06:57:27.827Z,10.38
2022-12-11T06:59:57.802Z,12.10
2022-12-11T07:02:30.083Z,11.43
2022-12-11T07:05:00.336Z,12.30
2022-12-11T07:07:31.455Z,11.38
2022-12-11T07:10:07.585Z,11.02
2022-12-11T07:12:38.744Z,11.00
2022-12-11T07:15:09.642Z,10.52
2022-12-11T07:17:40.450Z,10.93
2022-12-11T07:20:11.178Z,10.65
2022-12-11T07:22:46.717Z,11.27
2022-12-11T07:25:17.263Z,12.27
2022-12-11T07:27:47.801Z,11.02
2022-12-11T07:30:17.880Z,12.10
2022-12-11T07:32:48.468Z,11.65
2022-12-11T07:35:18.613Z,10.70
2022-12-11T07:37:49.212Z,11.45
2022-12-11T07:40:19.948Z,10.65
2022-12-11T07:42:50.171Z,10.70
2022-12-11T07:45:21.105Z,10.43
2022-12-11T07:47:53.828Z,11.30
2022-12-11T07:50:27.377Z,11.02
2022-12-11T07:52:57.458Z,10.40
2022-12-11T07:55:28.071Z,11.32
2022-12-11T07:57:58.046Z,11.55
2022-12-11T08:00:28.444Z,12.20
2022-12-11T08:05:27.805Z,12.18
2022-12-11T08:07:58.204Z,13.02
2022-12-11T08:10:28.859Z,12.60
2022-12-11T08:12:59.268Z,12.10
2022-12-11T08:17:58.643Z,12.18
2022-12-11T08:20:28.772Z,12.18
2022-12-11T08:22:59.566Z,12.80
2022-12-11T08:25:29.667Z,11.73
2022-12-11T08:30:29.773Z,11.23
2022-12-11T08:33:00.909Z,9.88
2022-12-11T08:35:31.227Z,11.73
2022-12-11T08:40:30.685Z,10.35
2022-12-11T08:45:30.443Z,10.48
2022-12-11T08:48:03.616Z,9.32
2022-12-11T08:50:34.268Z,9.45
2022-12-11T08:53:04.217Z,9.00
2022-12-11T08:55:35.642Z,9.18
2022-12-11T08:58:05.780Z,8.38
2022-12-11T09:00:36.381Z,9.60
2022-12-11T09:03:09.816Z,8.90
2022-12-11T09:08:12.293Z,9.18
2022-12-11T09:13:12.119Z,9.18
2022-12-11T09:15:42.965Z,8.02
2022-12-11T09:18:29.672Z,8.93
2022-12-11T09:21:04.406Z,9.18
2022-12-11T09:23:35.115Z,7.70
2022-12-11T09:26:10.222Z,8.57
2022-12-11T09:28:46.307Z,9.35
2022-12-11T09:31:26.635Z,9.38
2022-12-11T09:33:59.757Z,9.30
2022-12-11T09:36:30.847Z,8.15
2022-12-11T09:39:05.863Z,8.43
2022-12-11T09:41:40.380Z,8.25
2022-12-11T09:44:16.667Z,7.63
2022-12-11T09:46:48.256Z,7.40
2022-12-11T09:49:31.115Z,7.10
2022-12-11T09:52:28.282Z,7.53
2022-12-11T09:55:06.269Z,6.63
2022-12-11T09:57:57.810Z,6.80
2022-12-11T10:00:39.843Z,6.90
2022-12-11T10:03:42.034Z,6.35
2022-12-11T10:06:44.720Z,6.65
2022-12-11T10:09:38.001Z,5.80
2022-12-11T10:12:31.819Z,5.70
2022-12-11T10:15:43.516Z,5.60
2022-12-11T10:18:19.128Z,5.30
2022-12-11T10:20:52.249Z,5.20
2022-12-11T10:23:36.773Z,5.05
2022-12-11T10:26:17.745Z,4.78
2022-12-11T10:28:48.451Z,5.15
2022-12-11T10:31:47.163Z,5.00
2022-12-11T10:34:35.782Z,5.30
2022-12-11T10:37:06.201Z,4.63
2022-12-11T10:39:36.547Z,4.97
2022-12-11T10:42:20.618Z,4.97
2022-12-11T10:45:03.246Z,4.70
2022-12-11T10:47:35.206Z,3.70
2022-12-11T10:50:06.069Z,3.97
2022-12-11T10:52:46.670Z,3.72
2022-12-11T10:55:30.111Z,4.65
2022-12-11T10:58:04.238Z,4.25
2022-12-11T11:00:38.109Z,3.67
2022-12-11T11:03:22.637Z,4.03
2022-12-11T11:06:18.318Z,4.32
2022-12-11T11:08:55.623Z,3.58
2022-12-11T11:11:36.188Z,3.58
2022-12-11T11:14:16.263Z,4.00
2022-12-11T11:16:51.936Z,4.15
2022-12-11T11:19:33.712Z,4.20
2022-12-11T11:22:15.767Z,3.50
2022-12-11T11:25:00.364Z,4.82
2022-12-11T11:27:45.438Z,4.38
2022-12-11T11:30:29.304Z,4.32
2022-12-11T11:33:03.767Z,4.70
2022-12-11T11:35:34.619Z,4.60
2022-12-11T11:38:27.773Z,4.53
2022-12-11T11:41:31.958Z,4.47
2022-12-11T11:44:08.840Z,4.90
2022-12-11T11:46:56.117Z,5.00
2022-12-11T11:49:53.701Z,5.05
2022-12-11T11:52:32.095Z,4.43
2022-12-11T11:55:10.953Z,4.47
2022-12-11T11:57:54.814Z,3.90
2022-12-11T12:00:33.376Z,3.92
2022-12-11T12:03:12.577Z,4.25
2022-12-11T12:05:45.861Z,4.20
2022-12-11T12:08:45.360Z,3.47
2022-12-11T12:11:28.864Z,4.32
2022-12-11T12:14:35.903Z,3.75
2022-12-11T12:17:27.647Z,4.45
2022-12-11T12:20:19.468Z,4.10
2022-12-11T12:23:16.806Z,4.15
2022-12-11T12:25:58.726Z,4.53
2022-12-11T12:28:41.983Z,3.67
2022-12-11T12:31:47.623Z,3.63
2022-12-11T12:34:57.637Z,3.30
2022-12-11T12:37:36.984Z,3.53
2022-12-11T12:40:17.789Z,3.60
2022-12-11T12:42:58.661Z,3.30
2022-12-11T12:45:40.156Z,2.80
2022-12-11T12:48:11.885Z,2.75
2022-12-11T12:50:48.433Z,2.85
2022-12-11T12:53:23.654Z,2.88
2022-12-11T12:55:54.667Z,2.50
2022-12-11T12:58:53.254Z,2.53
2022-12-11T13:01:28.878Z,2.60
2022-12-11T13:04:20.769Z,3.10
2022-12-11T13:06:59.015Z,2.80
2022-12-11T13:09:30.352Z,2.63
2022-12-11T13:12:00.417Z,2.60
2022-12-11T13:14:34.946Z,3.08
2022-12-11T13:17:23.479Z,3.03
2022-12-11T13:20:16.681Z,3.10
2022-12-11T13:23:08.975Z,2.90
2022-12-11T13:25:58.615Z,3.10
2022-12-11T13:28:33.261Z,2.80
2022-12-11T13:31:18.355Z,3.13
2022-12-11T13:33:51.493Z,2.95
2022-12-11T13:36:24.751Z,2.70
2022-12-11T13:39:06.168Z,2.88
2022-12-11T13:41:39.461Z,3.15
2022-12-11T13:44:16.683Z,2.75
2022-12-11T13:46:47.291Z,2.75
2022-12-11T13:49:30.374Z,2.75
2022-12-11T13:52:02.267Z,2.65
2022-12-11T13:54:35.174Z,3.03
2022-12-11T13:57:05.562Z,2.90
2022-12-11T13:59:38.181Z,2.90
2022-12-11T14:02:21.566Z,3.00
2022-12-11T14:04:56.044Z,3.30
2022-12-11T14:07:36.118Z,2.90
2022-12-11T14:10:22.088Z,3.03
2022-12-11T14:13:01.106Z,3.65
2022-12-11T14:15:32.878Z,3.28
2022-12-11T14:18:03.524Z,3.00
2022-12-11T14:20:36.878Z,2.83
2022-12-11T14:23:10.623Z,3.13
2022-12-11T14:25:40.629Z,3.40
2022-12-11T14:28:19.570Z,3.60
2022-12-11T14:30:55.460Z,3.22
2022-12-11T14:33:29.998Z,3.20
2022-12-11T14:36:02.025Z,3.53
2022-12-11T14:39:01.682Z,3.10
2022-12-11T14:41:36.420Z,3.33
2022-12-11T14:44:09.483Z,3.53
2022-12-11T14:46:45.503Z,3.10
2022-12-11T14:49:41.428Z,3.30
2022-12-11T14:55:02.982Z,3.78
2022-12-11T14:57:35.626Z,3.13
2022-12-11T15:00:06.774Z,2.88
2022-12-11T15:02:38.667Z,3.25
2022-12-11T15:05:19.430Z,2.90
2022-12-11T15:08:05.001Z,2.95
2022-12-11T15:10:56.470Z,3.55
2022-12-11T15:13:27.108Z,3.05
2022-12-11T15:15:57.830Z,3.08
2022-12-11T15:18:32.739Z,3.00
2022-12-11T15:21:10.518Z,3.17
2022-12-11T15:23:58.886Z,2.92
2022-12-11T15:26:38.615Z,3.70
2022-12-11T15:29:28.468Z,2.83
2022-12-11T15:34:53.300Z,2.92
2022-12-11T15:37:26.401Z,3.17
2022-12-11T15:39:59.385Z,2.78
2022-12-11T15:42:34.761Z,2.72
2022-12-11T15:45:08.743Z,2.90
2022-12-11T15:47:38.863Z,2.95
2022-12-11T15:50:27.135Z,2.97
2022-12-11T15:53:26.114Z,3.10
2022-12-11T15:55:57.477Z,3.28
2022-12-11T15:58:29.181Z,2.92
2022-12-11T16:00:59.851Z,2.90
2022-12-11T16:03:30.041Z,4.00
2022-12-11T16:06:00.741Z,3.53
2022-12-11T16:08:30.948Z,3.13
2022-12-11T16:11:01.437Z,3.20
2022-12-11T16:13:31.911Z,2.90
2022-12-11T16:16:02.415Z,3.05
2022-12-11T16:18:33.016Z,2.97
2022-12-11T16:21:07.384Z,2.75
2022-12-11T16:23:37.440Z,2.75
2022-12-11T16:26:10.765Z,2.70
2022-12-11T16:28:41.105Z,2.75
2022-12-11T16:31:15.329Z,2.90
2022-12-11T16:33:48.511Z,2.90
2022-12-11T16:36:21.066Z,2.70
2022-12-11T16:38:53.979Z,2.67
2022-12-11T16:41:25.275Z,2.67
2022-12-11T16:43:56.059Z,2.83
2022-12-11T16:46:27.071Z,2.90
2022-12-11T16:48:58.046Z,2.83
2022-12-11T16:51:28.521Z,2.53
2022-12-11T16:53:58.656Z,2.83
2022-12-11T16:56:28.633Z,2.92
2022-12-11T16:58:59.164Z,2.75
2022-12-11T17:01:29.890Z,2.72
2022-12-11T17:04:00.492Z,3.08
2022-12-11T17:06:30.502Z,2.80
2022-12-11T17:09:00.319Z,3.28
2022-12-11T17:11:30.872Z,3.00
2022-12-11T17:14:01.939Z,3.20
2022-12-11T17:16:33.524Z,3.33
2022-12-11T17:19:04.564Z,3.10
2022-12-11T17:21:35.212Z,2.95
2022-12-11T17:24:07.317Z,3.22
2022-12-11T17:26:37.944Z,4.75
2022-12-11T17:29:08.056Z,5.13
2022-12-11T17:31:38.764Z,5.68
2022-12-11T17:34:09.101Z,6.32
2022-12-11T17:36:39.535Z,6.75
2022-12-11T17:39:09.621Z,6.82
2022-12-11T17:41:40.388Z,5.30
2022-12-11T17:44:11.736Z,5.40
2022-12-11T17:46:42.224Z,7.18
2022-12-11T17:49:12.429Z,7.00
2022-12-11T17:51:42.930Z,6.45
2022-12-11T17:54:13.639Z,6.28
2022-12-11T17:56:44.117Z,9.27
2022-12-11T17:59:14.250Z,10.90
2022-12-11T18:01:44.738Z,10.50
2022-12-11T18:04:17.784Z,6.40
2022-12-11T18:06:48.405Z,5.88
2022-12-11T18:09:20.737Z,6.25
2022-12-11T18:11:51.187Z,6.13
2022-12-11T18:14:24.381Z,5.80
2022-12-11T18:16:54.855Z,5.25
2022-12-11T18:19:26.517Z,5.78
2022-12-11T18:21:57.298Z,5.75
2022-12-11T18:24:32.802Z,5.93
2022-12-11T18:29:33.694Z,5.50
2022-12-11T18:32:03.591Z,5.18
2022-12-11T18:34:34.627Z,5.32
2022-12-11T18:37:04.587Z,5.05
2022-12-11T18:39:34.442Z,5.78
2022-12-11T18:42:31.585Z,5.30
2022-12-11T18:44:55.137Z,5.20
2022-12-11T18:47:25.641Z,4.55
2022-12-11T18:50:02.471Z,4.40
2022-12-11T18:52:36.750Z,5.38
2022-12-11T18:55:07.545Z,4.05
2022-12-11T18:57:37.861Z,4.78
2022-12-11T19:00:10.013Z,3.42
2022-12-11T19:02:40.373Z,3.40
2022-12-11T19:05:11.799Z,3.60
2022-12-11T19:07:42.368Z,3.85
2022-12-11T19:10:12.588Z,3.45
2022-12-11T19:12:44.073Z,3.22
2022-12-11T19:15:15.776Z,3.70
2022-12-11T19:17:47.818Z,3.97
2022-12-11T19:20:47.519Z,3.72
2022-12-11T19:23:09.300Z,3.60
2022-12-11T19:25:50.162Z,3.30
2022-12-11T19:28:20.583Z,3.38
2022-12-11T19:30:51.883Z,4.05
2022-12-11T19:33:22.309Z,3.38
2022-12-11T19:36:06.326Z,3.40
2022-12-11T19:38:37.555Z,3.65
2022-12-11T19:41:09.403Z,3.83
2022-12-11T19:43:40.201Z,3.83
2022-12-11T19:46:11.551Z,3.50
2022-12-11T19:48:42.956Z,4.05
2022-12-11T19:51:16.909Z,3.35
2022-12-11T19:53:50.225Z,3.40
2022-12-11T19:56:24.027Z,3.40
2022-12-11T19:58:54.650Z,3.90
2022-12-11T20:01:32.201Z,3.80
2022-12-11T20:04:08.866Z,2.92
2022-12-11T20:06:44.073Z,3.45
2022-12-11T20:09:15.188Z,3.70
2022-12-11T20:11:47.135Z,3.70
2022-12-11T20:14:24.674Z,3.70
2022-12-11T20:17:12.089Z,3.63
2022-12-11T20:19:43.197Z,3.72
2022-12-11T20:22:13.360Z,3.72
2022-12-11T20:24:43.732Z,3.80
2022-12-11T20:27:13.679Z,4.00
2022-12-11T20:29:44.113Z,3.90
2022-12-11T20:32:14.229Z,3.80
2022-12-11T20:34:44.717Z,3.60
2022-12-11T20:37:14.461Z,3.38
2022-12-11T20:39:44.961Z,3.72
2022-12-11T20:42:15.126Z,3.85
2022-12-11T20:44:49.284Z,4.68
2022-12-11T20:47:24.112Z,3.97
2022-12-11T20:49:54.529Z,3.33
2022-12-11T20:52:24.415Z,3.75
2022-12-11T20:54:54.886Z,3.42
2022-12-11T20:57:24.935Z,4.57
2022-12-11T20:59:55.336Z,4.35
2022-12-11T21:02:25.561Z,4.50
2022-12-11T21:04:55.891Z,3.70
2022-12-11T21:07:26.907Z,4.13
2022-12-11T21:09:57.281Z,4.32
2022-12-11T21:12:31.567Z,3.65
2022-12-11T21:15:02.263Z,3.80
2022-12-11T21:17:32.251Z,3.58
2022-12-11T21:20:02.683Z,4.15
2022-12-11T21:22:32.453Z,3.78
2022-12-11T21:25:03.053Z,5.30
2022-12-11T21:27:35.948Z,5.30
2022-12-11T21:30:07.470Z,5.68
2022-12-11T21:32:37.523Z,5.70
2022-12-11T21:35:08.414Z,6.30
2022-12-11T21:37:43.008Z,6.25
2022-12-11T21:40:13.725Z,7.93
2022-12-11T21:42:43.914Z,9.18
2022-12-11T21:45:52.079Z,9.23
2022-12-11T21:48:04.438Z,8.65
2022-12-11T21:50:34.814Z,8.30
2022-12-11T21:53:05.003Z,6.22
2022-12-11T21:55:36.293Z,5.57
2022-12-11T21:58:06.338Z,6.03
2022-12-11T22:00:40.834Z,5.63
2022-12-11T22:03:12.029Z,5.78
2022-12-11T22:05:42.437Z,5.97
2022-12-11T22:08:12.531Z,7.57
2022-12-11T22:10:43.060Z,7.97
2022-12-11T22:13:13.127Z,11.23
2022-12-11T22:15:43.542Z,13.43
2022-12-11T22:18:14.128Z,16.60
2022-12-11T22:20:45.000Z,16.85
2022-12-11T22:23:15.410Z,16.67
2022-12-11T22:25:51.316Z,15.85
2022-12-11T22:28:23.561Z,17.38
2022-12-11T22:30:54.042Z,18.80
2022-12-11T22:33:24.161Z,20.00
2022-12-11T22:35:59.109Z,19.83
2022-12-11T22:38:29.169Z,18.45
2022-12-11T22:40:59.585Z,17.80
2022-12-11T22:43:29.652Z,15.32
2022-12-11T22:46:03.068Z,16.52
2022-12-11T22:48:33.323Z,13.75
2022-12-11T22:51:08.049Z,12.10
2022-12-11T22:53:38.264Z,13.48
2022-12-11T22:56:13.943Z,13.10
2022-12-11T22:58:44.048Z,13.45
2022-12-11T23:01:18.571Z,12.38
2022-12-11T23:03:49.282Z,12.88
2022-12-11T23:06:22.431Z,13.82
2022-12-11T23:08:53.540Z,12.10
2022-12-11T23:11:30.044Z,12.55
2022-12-11T23:14:00.329Z,10.95
2022-12-11T23:16:30.838Z,11.45
2022-12-11T23:19:01.345Z,12.10
2022-12-11T23:21:33.976Z,11.80
2022-12-11T23:24:03.956Z,12.15
2022-12-11T23:26:34.411Z,10.82
2022-12-11T23:29:08.634Z,13.27
2022-12-11T23:31:41.410Z,14.32
2022-12-11T23:34:11.416Z,16.23
2022-12-11T23:36:41.875Z,16.00
2022-12-11T23:39:12.412Z,14.13
2022-12-11T23:41:43.799Z,13.55
2022-12-11T23:44:14.077Z,13.10
2022-12-11T23:46:46.019Z,11.93
2022-12-11T23:49:16.080Z,10.93
2022-12-11T23:51:46.569Z,10.43
2022-12-11T23:54:16.569Z,10.07
2022-12-11T23:59:16.752Z,10.20
